Time,TemperatureF,DewpointF,PressureIn,WindDirection,WindDirectionDegrees,WindSpeedMPH,WindSpeedGustMPH,Humidity,HourlyPrecipIn,Conditions,Clouds,dailyrainin,SolarRadiationWatts/m^2,SoftwareType,DateUTC
2013-03-30 00:02:00,36.0,26.0,-100.00,ENE,77,1.0,3.0,67,0.00,,,0.00,0.000000,,2013-03-30 04:02:00,
2013-03-30 00:13:00,36.0,26.0,-100.00,ENE,77,1.0,3.0,67,0.00,,,0.00,0.000000,,2013-03-30 04:13:00,
2013-03-30 00:43:00,34.0,26.0,-100.00,East,99,1.0,2.0,71,0.00,,,0.00,0.000000,,2013-03-30 04:43:00,
2013-03-30 00:53:00,34.0,26.0,-100.00,East,99,1.0,2.0,71,0.00,,,0.00,0.000000,,2013-03-30 04:53:00,
2013-03-30 01:02:00,34.0,26.0,-100.00,East,99,1.0,2.0,71,0.00,,,0.00,0.000000,,2013-03-30 05:02:00,
2013-03-30 01:12:00,34.0,26.0,-100.00,East,99,1.0,2.0,71,0.00,,,0.00,0.000000,,2013-03-30 05:12:00,
2013-03-30 01:42:00,34.0,27.0,-100.00,ENE,75,1.0,2.0,76,0.00,,,0.00,0.000000,,2013-03-30 05:42:00,
2013-03-30 01:52:00,34.0,27.0,-100.00,ENE,75,1.0,2.0,76,0.00,,,0.00,0.000000,,2013-03-30 05:52:00,
2013-03-30 02:02:00,34.0,27.0,-100.00,ENE,75,1.0,2.0,76,0.00,,,0.00,0.000000,,2013-03-30 06:02:00,
2013-03-30 02:12:00,34.0,27.0,-100.00,ENE,75,1.0,2.0,76,0.00,,,0.00,0.000000,,2013-03-30 06:12:00,
2013-03-30 02:42:00,35.0,29.0,-100.00,SE,127,0.0,2.0,77,0.00,,,0.00,0.000000,,2013-03-30 06:42:00,
2013-03-30 02:52:00,35.0,29.0,-100.00,SE,127,0.0,2.0,77,0.00,,,0.00,0.000000,,2013-03-30 06:52:00,
2013-03-30 03:02:00,35.0,29.0,-100.00,SE,127,0.0,2.0,77,0.00,,,0.00,0.000000,,2013-03-30 07:02:00,
2013-03-30 03:12:00,35.0,29.0,-100.00,SE,127,0.0,2.0,77,0.00,,,0.00,0.000000,,2013-03-30 07:12:00,
2013-03-30 03:42:00,34.0,29.0,-100.00,SE,143,1.0,3.0,81,0.00,,,0.00,0.000000,,2013-03-30 07:42:00,
2013-03-30 03:52:00,34.0,29.0,-100.00,SE,143,1.0,3.0,81,0.00,,,0.00,0.000000,,2013-03-30 07:52:00,
2013-03-30 04:02:00,34.0,29.0,-100.00,SE,143,1.0,3.0,81,0.00,,,0.00,0.000000,,2013-03-30 08:02:00,
2013-03-30 04:12:00,34.0,29.0,-100.00,SE,143,1.0,3.0,81,0.00,,,0.00,0.000000,,2013-03-30 08:12:00,
2013-03-30 04:42:00,35.0,30.0,-100.00,East,94,1.0,3.0,82,0.00,,,0.00,0.000000,,2013-03-30 08:42:00,
2013-03-30 04:53:00,35.0,30.0,-100.00,East,94,1.0,3.0,82,0.00,,,0.00,0.000000,,2013-03-30 08:53:00,
2013-03-30 05:02:00,35.0,30.0,-100.00,East,94,1.0,3.0,82,0.00,,,0.00,0.000000,,2013-03-30 09:02:00,
2013-03-30 05:12:00,35.0,30.0,-100.00,East,94,1.0,3.0,82,0.00,,,0.00,0.000000,,2013-03-30 09:12:00,
2013-03-30 05:43:00,35.0,31.0,-100.00,WSW,250,0.0,2.0,85,0.00,,,0.00,0.000000,,2013-03-30 09:43:00,
2013-03-30 05:54:00,35.0,31.0,-100.00,WSW,250,0.0,2.0,85,0.00,,,0.00,0.000000,,2013-03-30 09:54:00,
2013-03-30 06:03:00,35.0,31.0,-100.00,WSW,250,0.0,2.0,85,0.00,,,0.00,0.000000,,2013-03-30 10:03:00,
2013-03-30 06:13:00,35.0,31.0,-100.00,WSW,250,0.0,2.0,85,0.00,,,0.00,0.000000,,2013-03-30 10:13:00,
2013-03-30 06:42:00,33.0,29.0,-100.00,NW,305,1.0,3.0,86,0.00,,,0.00,0.000000,,2013-03-30 10:42:00,
2013-03-30 06:53:00,33.0,29.0,-100.00,NW,305,1.0,3.0,86,0.00,,,0.00,0.000000,,2013-03-30 10:53:00,
2013-03-30 07:04:00,33.0,29.0,-100.00,NW,305,1.0,3.0,86,0.00,,,0.00,0.000000,,2013-03-30 11:04:00,
2013-03-30 07:12:00,33.0,29.0,-100.00,NW,305,1.0,3.0,86,0.00,,,0.00,0.000000,,2013-03-30 11:12:00,
2013-03-30 07:43:00,32.0,28.0,-100.00,East,91,0.0,3.0,86,0.00,,,0.00,0.000000,,2013-03-30 11:43:00,
2013-03-30 07:53:00,32.0,28.0,-100.00,East,91,0.0,3.0,86,0.00,,,0.00,0.000000,,2013-03-30 11:53:00,
2013-03-30 08:02:00,32.0,28.0,-100.00,East,91,0.0,3.0,86,0.00,,,0.00,0.000000,,2013-03-30 12:02:00,
2013-03-30 08:13:00,32.0,28.0,-100.00,East,91,0.0,3.0,86,0.00,,,0.00,0.000000,,2013-03-30 12:13:00,
2013-03-30 08:43:00,34.0,30.0,-100.00,West,280,0.0,0.0,86,0.00,,,0.00,27.000000,,2013-03-30 12:43:00,
2013-03-30 08:53:00,34.0,30.0,-100.00,West,280,0.0,0.0,86,0.00,,,0.00,27.000000,,2013-03-30 12:53:00,
2013-03-30 09:02:00,34.0,30.0,-100.00,West,280,0.0,0.0,86,0.00,,,0.00,27.000000,,2013-03-30 13:02:00,
2013-03-30 09:12:00,34.0,30.0,-100.00,West,280,0.0,0.0,86,0.00,,,0.00,27.000000,,2013-03-30 13:12:00,
2013-03-30 09:43:00,44.0,34.0,-100.00,NNE,13,1.0,2.0,69,0.00,,,0.00,206.000000,,2013-03-30 13:43:00,
2013-03-30 09:53:00,44.0,34.0,-100.00,NNE,13,1.0,2.0,69,0.00,,,0.00,206.000000,,2013-03-30 13:53:00,
2013-03-30 10:03:00,44.0,34.0,-100.00,NNE,13,1.0,2.0,69,0.00,,,0.00,206.000000,,2013-03-30 14:03:00,
2013-03-30 10:12:00,44.0,34.0,-100.00,NNE,13,1.0,2.0,69,0.00,,,0.00,206.000000,,2013-03-30 14:12:00,
2013-03-30 10:43:00,47.0,29.0,-100.00,West,267,4.0,7.0,49,0.00,,,0.00,324.000000,,2013-03-30 14:43:00,
2013-03-30 10:53:00,47.0,29.0,-100.00,West,267,4.0,7.0,49,0.00,,,0.00,324.000000,,2013-03-30 14:53:00,
2013-03-30 11:03:00,47.0,29.0,-100.00,West,267,4.0,7.0,49,0.00,,,0.00,324.000000,,2013-03-30 15:03:00,
2013-03-30 11:12:00,47.0,29.0,-100.00,West,267,4.0,7.0,49,0.00,,,0.00,324.000000,,2013-03-30 15:12:00,
2013-03-30 11:43:00,51.0,27.0,-100.00,West,274,5.0,8.0,39,0.00,,,-99.99,553.000000,,2013-03-30 15:43:00,
2013-03-30 11:53:00,51.0,27.0,-100.00,West,274,5.0,8.0,39,0.00,,,-99.99,553.000000,,2013-03-30 15:53:00,
2013-03-30 12:04:00,51.0,27.0,-100.00,West,274,5.0,8.0,39,0.00,,,-99.99,553.000000,,2013-03-30 16:04:00,
2013-03-30 12:13:00,51.0,27.0,-100.00,West,274,5.0,8.0,39,0.00,,,-99.99,553.000000,,2013-03-30 16:13:00,
2013-03-30 12:43:00,53.0,27.0,-100.00,SW,236,5.0,12.0,36,0.00,,,0.00,697.000000,,2013-03-30 16:43:00,
2013-03-30 12:53:00,53.0,27.0,-100.00,SW,236,5.0,12.0,36,0.00,,,0.00,697.000000,,2013-03-30 16:53:00,
2013-03-30 13:02:00,53.0,27.0,-100.00,SW,236,5.0,12.0,36,0.00,,,0.00,697.000000,,2013-03-30 17:02:00,
2013-03-30 13:13:00,53.0,27.0,-100.00,SW,236,5.0,12.0,36,0.00,,,0.00,697.000000,,2013-03-30 17:13:00,
2013-03-30 13:43:00,54.0,26.0,-100.00,West,280,8.0,13.0,33,0.00,,,0.00,764.000000,,2013-03-30 17:43:00,
2013-03-30 13:53:00,54.0,26.0,-100.00,West,280,8.0,13.0,33,0.00,,,0.00,764.000000,,2013-03-30 17:53:00,
2013-03-30 14:03:00,54.0,26.0,-100.00,West,280,8.0,13.0,33,0.00,,,0.00,764.000000,,2013-03-30 18:03:00,
2013-03-30 14:13:00,54.0,26.0,-100.00,West,280,8.0,13.0,33,0.00,,,0.00,764.000000,,2013-03-30 18:13:00,
2013-03-30 14:43:00,57.0,25.0,-100.00,SSW,208,4.0,15.0,29,0.00,,,0.00,758.000000,,2013-03-30 18:43:00,
2013-03-30 14:53:00,57.0,25.0,-100.00,SSW,208,4.0,15.0,29,0.00,,,0.00,758.000000,,2013-03-30 18:53:00,
2013-03-30 15:03:00,57.0,25.0,-100.00,SSW,208,4.0,15.0,29,0.00,,,0.00,758.000000,,2013-03-30 19:03:00,
2013-03-30 15:13:00,57.0,25.0,-100.00,SSW,208,4.0,15.0,29,0.00,,,0.00,758.000000,,2013-03-30 19:13:00,
2013-03-30 15:42:00,58.0,25.0,-100.00,SSW,202,5.0,13.0,28,0.00,,,0.00,699.000000,,2013-03-30 19:42:00,
2013-03-30 15:53:00,58.0,25.0,-100.00,SSW,202,5.0,13.0,28,0.00,,,0.00,699.000000,,2013-03-30 19:53:00,
2013-03-30 16:02:00,58.0,25.0,-100.00,SSW,202,5.0,13.0,28,0.00,,,0.00,699.000000,,2013-03-30 20:02:00,
2013-03-30 16:12:00,58.0,25.0,-100.00,SSW,202,5.0,13.0,28,0.00,,,0.00,699.000000,,2013-03-30 20:12:00,
2013-03-30 16:43:00,59.0,24.0,-100.00,NW,322,5.0,12.0,26,0.00,,,0.00,583.000000,,2013-03-30 20:43:00,
2013-03-30 16:53:00,59.0,24.0,-100.00,NW,322,5.0,12.0,26,0.00,,,0.00,583.000000,,2013-03-30 20:53:00,
2013-03-30 17:03:00,59.0,24.0,-100.00,NW,322,5.0,12.0,26,0.00,,,0.00,583.000000,,2013-03-30 21:03:00,
2013-03-30 17:13:00,59.0,24.0,-100.00,NW,322,5.0,12.0,26,0.00,,,0.00,583.000000,,2013-03-30 21:13:00,
2013-03-30 17:43:00,59.0,22.0,-100.00,WNW,292,5.0,10.0,24,0.00,,,0.00,398.000000,,2013-03-30 21:43:00,
2013-03-30 17:53:00,59.0,22.0,-100.00,WNW,292,5.0,10.0,24,0.00,,,0.00,398.000000,,2013-03-30 21:53:00,
2013-03-30 18:03:00,59.0,22.0,-100.00,WNW,292,5.0,10.0,24,0.00,,,0.00,398.000000,,2013-03-30 22:03:00,
2013-03-30 18:13:00,59.0,22.0,-100.00,WNW,292,5.0,10.0,24,0.00,,,0.00,398.000000,,2013-03-30 22:13:00,
2013-03-30 18:44:00,59.0,21.0,-100.00,SSE,165,3.0,12.0,23,0.00,,,0.00,278.000000,,2013-03-30 22:44:00,
2013-03-30 18:54:00,59.0,21.0,-100.00,SSE,165,3.0,12.0,23,0.00,,,0.00,278.000000,,2013-03-30 22:54:00,
2013-03-30 19:03:00,59.0,21.0,-100.00,SSE,165,3.0,12.0,23,0.00,,,0.00,278.000000,,2013-03-30 23:03:00,
2013-03-30 19:13:00,59.0,21.0,-100.00,SSE,165,3.0,12.0,23,0.00,,,0.00,278.000000,,2013-03-30 23:13:00,
2013-03-30 19:43:00,52.0,22.0,-100.00,ESE,108,1.0,5.0,30,0.00,,,0.00,76.000000,,2013-03-30 23:43:00,
2013-03-30 19:53:00,52.0,22.0,-100.00,ESE,108,1.0,5.0,30,0.00,,,0.00,76.000000,,2013-03-30 23:53:00,
2013-03-30 20:03:00,52.0,22.0,-100.00,ESE,108,1.0,5.0,30,0.00,,,0.00,76.000000,,2013-03-31 00:03:00,
2013-03-30 20:12:00,52.0,22.0,-100.00,ESE,108,1.0,5.0,30,0.00,,,0.00,76.000000,,2013-03-31 00:12:00,
2013-03-30 20:43:00,44.0,27.0,-100.00,ENE,67,0.0,4.0,50,0.00,,,0.00,6.000000,,2013-03-31 00:43:00,
2013-03-30 20:53:00,44.0,27.0,-100.00,ENE,67,0.0,4.0,50,0.00,,,0.00,6.000000,,2013-03-31 00:53:00,
2013-03-30 21:02:00,44.0,27.0,-100.00,ENE,67,0.0,4.0,50,0.00,,,0.00,6.000000,,2013-03-31 01:02:00,
2013-03-30 21:12:00,44.0,27.0,-100.00,ENE,67,0.0,4.0,50,0.00,,,0.00,6.000000,,2013-03-31 01:12:00,
2013-03-30 21:43:00,41.0,28.0,-100.00,ENE,70,1.0,4.0,60,0.00,,,0.00,0.000000,,2013-03-31 01:43:00,
2013-03-30 21:53:00,41.0,28.0,-100.00,ENE,70,1.0,4.0,60,0.00,,,0.00,0.000000,,2013-03-31 01:53:00,
2013-03-30 22:02:00,41.0,28.0,-100.00,ENE,70,1.0,4.0,60,0.00,,,0.00,0.000000,,2013-03-31 02:02:00,
2013-03-30 22:13:00,41.0,28.0,-100.00,ENE,70,1.0,4.0,60,0.00,,,0.00,0.000000,,2013-03-31 02:13:00,
2013-03-30 22:43:00,39.0,27.0,-100.00,North,10,0.0,2.0,63,0.00,,,0.00,0.000000,,2013-03-31 02:43:00,
2013-03-30 22:53:00,39.0,27.0,-100.00,North,10,0.0,2.0,63,0.00,,,0.00,0.000000,,2013-03-31 02:53:00,
2013-03-30 23:02:00,39.0,27.0,-100.00,North,10,0.0,2.0,63,0.00,,,0.00,0.000000,,2013-03-31 03:02:00,
2013-03-30 23:13:00,39.0,27.0,-100.00,North,10,0.0,2.0,63,0.00,,,0.00,0.000000,,2013-03-31 03:13:00,
2013-03-30 23:44:00,38.0,29.0,-100.00,East,80,2.0,3.0,70,0.00,,,0.00,0.000000,,2013-03-31 03:44:00,
2013-03-30 23:54:00,38.0,29.0,-100.00,East,80,2.0,3.0,70,0.00,,,0.00,0.000000,,2013-03-31 03:54:00,